sensor_id;sensor_type;location;lat;lon;timestamp;pressure;altitude;pressure_sealevel;temperature
44429;BMP180;30134;47.866;-4.222;2024-02-26T00:00:41;98295.00;;;23.50
44429;BMP180;30134;47.866;-4.222;2024-02-26T00:03:07;98296.00;;;23.50
44429;BMP180;30134;47.866;-4.222;2024-02-26T00:05:32;98296.00;;;23.50
44429;BMP180;30134;47.866;-4.222;2024-02-26T00:07:58;98293.00;;;23.40
44429;BMP180;30134;47.866;-4.222;2024-02-26T00:10:24;98302.00;;;23.40
44429;BMP180;30134;47.866;-4.222;2024-02-26T00:12:50;98304.00;;;23.40
44429;BMP180;30134;47.866;-4.222;2024-02-26T00:15:16;98313.00;;;23.40
44429;BMP180;30134;47.866;-4.222;2024-02-26T00:17:42;98319.00;;;23.40
44429;BMP180;30134;47.866;-4.222;2024-02-26T00:20:10;98323.00;;;23.40
44429;BMP180;30134;47.866;-4.222;2024-02-26T00:22:37;98321.00;;;23.40
44429;BMP180;30134;47.866;-4.222;2024-02-26T00:25:04;98334.00;;;23.30
44429;BMP180;30134;47.866;-4.222;2024-02-26T00:27:30;98332.00;;;23.30
44429;BMP180;30134;47.866;-4.222;2024-02-26T00:29:56;98336.00;;;23.30
44429;BMP180;30134;47.866;-4.222;2024-02-26T00:32:22;98334.00;;;23.30
44429;BMP180;30134;47.866;-4.222;2024-02-26T00:34:48;98344.00;;;23.30
44429;BMP180;30134;47.866;-4.222;2024-02-26T00:37:14;98346.00;;;23.30
44429;BMP180;30134;47.866;-4.222;2024-02-26T00:39:42;98347.00;;;23.20
44429;BMP180;30134;47.866;-4.222;2024-02-26T00:42:08;98354.00;;;23.20
44429;BMP180;30134;47.866;-4.222;2024-02-26T00:44:34;98351.00;;;23.20
44429;BMP180;30134;47.866;-4.222;2024-02-26T00:47:00;98353.00;;;23.20
44429;BMP180;30134;47.866;-4.222;2024-02-26T00:49:26;98357.00;;;23.20
44429;BMP180;30134;47.866;-4.222;2024-02-26T00:51:52;98363.00;;;23.20
44429;BMP180;30134;47.866;-4.222;2024-02-26T00:54:18;98360.00;;;23.20
44429;BMP180;30134;47.866;-4.222;2024-02-26T00:56:45;98360.00;;;23.20
44429;BMP180;30134;47.866;-4.222;2024-02-26T00:59:10;98372.00;;;23.20
44429;BMP180;30134;47.866;-4.222;2024-02-26T01:01:36;98369.00;;;23.20
44429;BMP180;30134;47.866;-4.222;2024-02-26T01:04:03;98371.00;;;23.20
44429;BMP180;30134;47.866;-4.222;2024-02-26T01:06:35;98372.00;;;23.20
44429;BMP180;30134;47.866;-4.222;2024-02-26T01:09:01;98372.00;;;23.20
44429;BMP180;30134;47.866;-4.222;2024-02-26T01:11:27;98368.00;;;23.20
44429;BMP180;30134;47.866;-4.222;2024-02-26T01:13:53;98371.00;;;23.10
44429;BMP180;30134;47.866;-4.222;2024-02-26T01:16:23;98379.00;;;23.20
44429;BMP180;30134;47.866;-4.222;2024-02-26T01:18:49;98382.00;;;23.10
44429;BMP180;30134;47.866;-4.222;2024-02-26T01:21:15;98387.00;;;23.10
44429;BMP180;30134;47.866;-4.222;2024-02-26T01:23:41;98388.00;;;23.10
44429;BMP180;30134;47.866;-4.222;2024-02-26T01:26:08;98396.00;;;23.10
44429;BMP180;30134;47.866;-4.222;2024-02-26T01:28:34;98394.00;;;23.10
44429;BMP180;30134;47.866;-4.222;2024-02-26T01:31:00;98399.00;;;23.10
44429;BMP180;30134;47.866;-4.222;2024-02-26T01:33:26;98406.00;;;23.10
44429;BMP180;30134;47.866;-4.222;2024-02-26T01:35:52;98411.00;;;23.10
44429;BMP180;30134;47.866;-4.222;2024-02-26T01:38:19;98413.00;;;23.10
44429;BMP180;30134;47.866;-4.222;2024-02-26T01:40:45;98423.00;;;23.10
44429;BMP180;30134;47.866;-4.222;2024-02-26T01:43:11;98418.00;;;23.10
44429;BMP180;30134;47.866;-4.222;2024-02-26T01:45:37;98433.00;;;23.10
44429;BMP180;30134;47.866;-4.222;2024-02-26T01:48:03;98437.00;;;23.10
44429;BMP180;30134;47.866;-4.222;2024-02-26T01:50:29;98444.00;;;23.10
44429;BMP180;30134;47.866;-4.222;2024-02-26T01:52:55;98450.00;;;23.10
44429;BMP180;30134;47.866;-4.222;2024-02-26T01:55:23;98473.00;;;23.10
44429;BMP180;30134;47.866;-4.222;2024-02-26T01:57:50;98470.00;;;23.00
44429;BMP180;30134;47.866;-4.222;2024-02-26T02:00:18;98477.00;;;23.10
44429;BMP180;30134;47.866;-4.222;2024-02-26T02:02:45;98486.00;;;23.00
44429;BMP180;30134;47.866;-4.222;2024-02-26T02:05:18;98491.00;;;23.00
44429;BMP180;30134;47.866;-4.222;2024-02-26T02:07:45;98504.00;;;23.10
44429;BMP180;30134;47.866;-4.222;2024-02-26T02:10:15;98506.00;;;23.00
44429;BMP180;30134;47.866;-4.222;2024-02-26T02:12:43;98519.00;;;23.10
44429;BMP180;30134;47.866;-4.222;2024-02-26T02:15:09;98526.00;;;23.00
44429;BMP180;30134;47.866;-4.222;2024-02-26T02:17:36;98544.00;;;23.00
44429;BMP180;30134;47.866;-4.222;2024-02-26T02:20:02;98546.00;;;23.00
44429;BMP180;30134;47.866;-4.222;2024-02-26T02:22:29;98563.00;;;23.00
44429;BMP180;30134;47.866;-4.222;2024-02-26T02:24:57;98557.00;;;23.00
44429;BMP180;30134;47.866;-4.222;2024-02-26T02:27:24;98586.00;;;23.10
44429;BMP180;30134;47.866;-4.222;2024-02-26T02:29:51;98597.00;;;23.10
44429;BMP180;30134;47.866;-4.222;2024-02-26T02:32:17;98601.00;;;23.10
44429;BMP180;30134;47.866;-4.222;2024-02-26T02:34:44;98618.00;;;23.00
44429;BMP180;30134;47.866;-4.222;2024-02-26T02:37:10;98615.00;;;23.00
44429;BMP180;30134;47.866;-4.222;2024-02-26T02:39:36;98625.00;;;23.00
44429;BMP180;30134;47.866;-4.222;2024-02-26T02:42:02;98643.00;;;23.00
44429;BMP180;30134;47.866;-4.222;2024-02-26T02:44:28;98650.00;;;23.00
44429;BMP180;30134;47.866;-4.222;2024-02-26T02:46:54;98662.00;;;23.00
44429;BMP180;30134;47.866;-4.222;2024-02-26T02:49:20;98679.00;;;23.00
44429;BMP180;30134;47.866;-4.222;2024-02-26T02:51:46;98679.00;;;23.00
44429;BMP180;30134;47.866;-4.222;2024-02-26T02:54:12;98689.00;;;23.00
44429;BMP180;30134;47.866;-4.222;2024-02-26T02:56:38;98701.00;;;22.90
44429;BMP180;30134;47.866;-4.222;2024-02-26T02:59:05;98714.00;;;22.90
44429;BMP180;30134;47.866;-4.222;2024-02-26T03:01:31;98713.00;;;22.90
44429;BMP180;30134;47.866;-4.222;2024-02-26T03:03:57;98734.00;;;23.00
44429;BMP180;30134;47.866;-4.222;2024-02-26T03:06:23;98733.00;;;22.90
44429;BMP180;30134;47.866;-4.222;2024-02-26T03:08:52;98750.00;;;22.90
44429;BMP180;30134;47.866;-4.222;2024-02-26T03:11:18;98763.00;;;22.90
44429;BMP180;30134;47.866;-4.222;2024-02-26T03:13:44;98766.00;;;22.90
44429;BMP180;30134;47.866;-4.222;2024-02-26T03:16:11;98773.00;;;23.00
44429;BMP180;30134;47.866;-4.222;2024-02-26T03:18:40;98779.00;;;22.90
44429;BMP180;30134;47.866;-4.222;2024-02-26T03:21:07;98788.00;;;22.90
44429;BMP180;30134;47.866;-4.222;2024-02-26T03:23:33;98795.00;;;22.90
44429;BMP180;30134;47.866;-4.222;2024-02-26T03:26:04;98797.00;;;22.90
44429;BMP180;30134;47.866;-4.222;2024-02-26T03:28:31;98818.00;;;22.90
44429;BMP180;30134;47.866;-4.222;2024-02-26T03:31:00;98824.00;;;22.90
44429;BMP180;30134;47.866;-4.222;2024-02-26T03:33:26;98827.00;;;22.90
44429;BMP180;30134;47.866;-4.222;2024-02-26T03:35:52;98843.00;;;22.90
44429;BMP180;30134;47.866;-4.222;2024-02-26T03:38:18;98849.00;;;22.90
44429;BMP180;30134;47.866;-4.222;2024-02-26T03:40:44;98857.00;;;22.90
44429;BMP180;30134;47.866;-4.222;2024-02-26T03:43:10;98865.00;;;22.80
44429;BMP180;30134;47.866;-4.222;2024-02-26T03:45:36;98862.00;;;22.80
44429;BMP180;30134;47.866;-4.222;2024-02-26T03:48:02;98875.00;;;22.80
44429;BMP180;30134;47.866;-4.222;2024-02-26T03:50:28;98898.00;;;22.80
44429;BMP180;30134;47.866;-4.222;2024-02-26T03:52:55;98896.00;;;22.80
44429;BMP180;30134;47.866;-4.222;2024-02-26T03:55:23;98903.00;;;22.80
44429;BMP180;30134;47.866;-4.222;2024-02-26T03:57:53;98905.00;;;22.80
44429;BMP180;30134;47.866;-4.222;2024-02-26T04:00:20;98917.00;;;22.80
44429;BMP180;30134;47.866;-4.222;2024-02-26T04:02:49;98934.00;;;22.80
44429;BMP180;30134;47.866;-4.222;2024-02-26T04:05:15;98933.00;;;22.80
44429;BMP180;30134;47.866;-4.222;2024-02-26T04:07:41;98952.00;;;22.80
44429;BMP180;30134;47.866;-4.222;2024-02-26T04:10:11;98958.00;;;22.80
44429;BMP180;30134;47.866;-4.222;2024-02-26T04:12:41;98963.00;;;22.80
44429;BMP180;30134;47.866;-4.222;2024-02-26T04:15:11;98970.00;;;22.70
44429;BMP180;30134;47.866;-4.222;2024-02-26T04:17:37;98979.00;;;22.80
44429;BMP180;30134;47.866;-4.222;2024-02-26T04:20:05;98988.00;;;22.80
44429;BMP180;30134;47.866;-4.222;2024-02-26T04:22:32;99017.00;;;22.80
44429;BMP180;30134;47.866;-4.222;2024-02-26T04:24:58;99017.00;;;22.80
44429;BMP180;30134;47.866;-4.222;2024-02-26T04:27:24;99010.00;;;22.90
44429;BMP180;30134;47.866;-4.222;2024-02-26T04:29:50;99027.00;;;22.80
44429;BMP180;30134;47.866;-4.222;2024-02-26T04:32:16;99035.00;;;22.80
44429;BMP180;30134;47.866;-4.222;2024-02-26T04:34:42;99044.00;;;22.70
44429;BMP180;30134;47.866;-4.222;2024-02-26T04:37:08;99038.00;;;22.70
44429;BMP180;30134;47.866;-4.222;2024-02-26T04:39:34;99069.00;;;22.80
44429;BMP180;30134;47.866;-4.222;2024-02-26T04:42:00;99068.00;;;22.70
44429;BMP180;30134;47.866;-4.222;2024-02-26T04:44:29;99065.00;;;22.70
44429;BMP180;30134;47.866;-4.222;2024-02-26T04:46:56;99079.00;;;22.80
44429;BMP180;30134;47.866;-4.222;2024-02-26T04:49:22;99103.00;;;22.70
44429;BMP180;30134;47.866;-4.222;2024-02-26T04:51:48;99093.00;;;22.70
44429;BMP180;30134;47.866;-4.222;2024-02-26T04:54:14;99097.00;;;22.80
44429;BMP180;30134;47.866;-4.222;2024-02-26T04:56:40;99124.00;;;22.70
44429;BMP180;30134;47.866;-4.222;2024-02-26T04:59:06;99132.00;;;22.80
44429;BMP180;30134;47.866;-4.222;2024-02-26T05:01:32;99133.00;;;22.70
44429;BMP180;30134;47.866;-4.222;2024-02-26T05:03:58;99136.00;;;22.70
44429;BMP180;30134;47.866;-4.222;2024-02-26T05:06:24;99144.00;;;22.70
44429;BMP180;30134;47.866;-4.222;2024-02-26T05:08:49;99159.00;;;22.70
44429;BMP180;30134;47.866;-4.222;2024-02-26T05:11:15;99158.00;;;22.70
44429;BMP180;30134;47.866;-4.222;2024-02-26T05:13:43;99183.00;;;22.60
44429;BMP180;30134;47.866;-4.222;2024-02-26T05:16:11;99180.00;;;22.70
44429;BMP180;30134;47.866;-4.222;2024-02-26T05:18:37;99199.00;;;22.70
44429;BMP180;30134;47.866;-4.222;2024-02-26T05:21:03;99204.00;;;22.70
44429;BMP180;30134;47.866;-4.222;2024-02-26T05:23:29;99224.00;;;22.60
44429;BMP180;30134;47.866;-4.222;2024-02-26T05:25:55;99230.00;;;22.70
44429;BMP180;30134;47.866;-4.222;2024-02-26T05:28:21;99240.00;;;22.70
44429;BMP180;30134;47.866;-4.222;2024-02-26T05:30:47;99243.00;;;22.70
44429;BMP180;30134;47.866;-4.222;2024-02-26T05:33:13;99250.00;;;22.60
44429;BMP180;30134;47.866;-4.222;2024-02-26T05:35:40;99262.00;;;22.70
44429;BMP180;30134;47.866;-4.222;2024-02-26T05:38:06;99264.00;;;22.60
44429;BMP180;30134;47.866;-4.222;2024-02-26T05:40:32;99278.00;;;22.70
44429;BMP180;30134;47.866;-4.222;2024-02-26T05:42:58;99279.00;;;22.70
44429;BMP180;30134;47.866;-4.222;2024-02-26T05:45:24;99284.00;;;22.70
44429;BMP180;30134;47.866;-4.222;2024-02-26T05:47:50;99299.00;;;22.70
44429;BMP180;30134;47.866;-4.222;2024-02-26T05:50:16;99304.00;;;22.60
44429;BMP180;30134;47.866;-4.222;2024-02-26T05:52:42;99309.00;;;22.60
44429;BMP180;30134;47.866;-4.222;2024-02-26T05:55:09;99314.00;;;22.60
44429;BMP180;30134;47.866;-4.222;2024-02-26T05:57:35;99332.00;;;22.70
44429;BMP180;30134;47.866;-4.222;2024-02-26T06:00:01;99329.00;;;22.60
44429;BMP180;30134;47.866;-4.222;2024-02-26T06:02:32;99347.00;;;22.60
44429;BMP180;30134;47.866;-4.222;2024-02-26T06:04:58;99364.00;;;22.70
44429;BMP180;30134;47.866;-4.222;2024-02-26T06:07:24;99367.00;;;22.70
44429;BMP180;30134;47.866;-4.222;2024-02-26T06:09:51;99393.00;;;22.60
44429;BMP180;30134;47.866;-4.222;2024-02-26T06:12:17;99389.00;;;22.60
44429;BMP180;30134;47.866;-4.222;2024-02-26T06:14:43;99404.00;;;22.60
44429;BMP180;30134;47.866;-4.222;2024-02-26T06:17:09;99417.00;;;22.60
44429;BMP180;30134;47.866;-4.222;2024-02-26T06:19:35;99408.00;;;22.60
44429;BMP180;30134;47.866;-4.222;2024-02-26T06:22:01;99425.00;;;22.50
44429;BMP180;30134;47.866;-4.222;2024-02-26T06:24:27;99433.00;;;22.50
44429;BMP180;30134;47.866;-4.222;2024-02-26T06:26:53;99430.00;;;22.60
44429;BMP180;30134;47.866;-4.222;2024-02-26T06:29:19;99453.00;;;22.50
44429;BMP180;30134;47.866;-4.222;2024-02-26T06:31:45;99451.00;;;22.50
44429;BMP180;30134;47.866;-4.222;2024-02-26T06:34:11;99465.00;;;22.50
44429;BMP180;30134;47.866;-4.222;2024-02-26T06:36:37;99470.00;;;22.60
44429;BMP180;30134;47.866;-4.222;2024-02-26T06:39:03;99488.00;;;22.60
44429;BMP180;30134;47.866;-4.222;2024-02-26T06:41:31;99495.00;;;22.60
44429;BMP180;30134;47.866;-4.222;2024-02-26T06:43:57;99501.00;;;22.50
44429;BMP180;30134;47.866;-4.222;2024-02-26T06:46:23;99505.00;;;22.50
44429;BMP180;30134;47.866;-4.222;2024-02-26T06:48:51;99507.00;;;22.60
44429;BMP180;30134;47.866;-4.222;2024-02-26T06:51:17;99520.00;;;22.60
44429;BMP180;30134;47.866;-4.222;2024-02-26T06:53:43;99537.00;;;22.60
44429;BMP180;30134;47.866;-4.222;2024-02-26T06:56:09;99538.00;;;22.20
44429;BMP180;30134;47.866;-4.222;2024-02-26T06:58:35;99564.00;;;22.20
44429;BMP180;30134;47.866;-4.222;2024-02-26T07:01:01;99549.00;;;22.30
44429;BMP180;30134;47.866;-4.222;2024-02-26T07:03:27;99569.00;;;22.40
44429;BMP180;30134;47.866;-4.222;2024-02-26T07:05:53;99573.00;;;22.40
44429;BMP180;30134;47.866;-4.222;2024-02-26T07:08:19;99587.00;;;22.40
44429;BMP180;30134;47.866;-4.222;2024-02-26T07:10:45;99592.00;;;22.40
44429;BMP180;30134;47.866;-4.222;2024-02-26T07:13:12;99589.00;;;22.40
44429;BMP180;30134;47.866;-4.222;2024-02-26T07:15:45;99604.00;;;22.40
44429;BMP180;30134;47.866;-4.222;2024-02-26T07:18:25;99617.00;;;22.40
44429;BMP180;30134;47.866;-4.222;2024-02-26T07:20:51;99626.00;;;22.40
44429;BMP180;30134;47.866;-4.222;2024-02-26T07:23:17;99642.00;;;22.40
44429;BMP180;30134;47.866;-4.222;2024-02-26T07:25:43;99644.00;;;22.40
44429;BMP180;30134;47.866;-4.222;2024-02-26T07:28:10;99648.00;;;22.40
44429;BMP180;30134;47.866;-4.222;2024-02-26T07:30:36;99660.00;;;22.50
44429;BMP180;30134;47.866;-4.222;2024-02-26T07:33:02;99656.00;;;22.40
44429;BMP180;30134;47.866;-4.222;2024-02-26T07:35:28;99678.00;;;22.40
44429;BMP180;30134;47.866;-4.222;2024-02-26T07:37:54;99680.00;;;22.40
44429;BMP180;30134;47.866;-4.222;2024-02-26T07:40:20;99681.00;;;22.40
44429;BMP180;30134;47.866;-4.222;2024-02-26T07:42:46;99704.00;;;22.40
44429;BMP180;30134;47.866;-4.222;2024-02-26T07:45:12;99708.00;;;22.40
44429;BMP180;30134;47.866;-4.222;2024-02-26T07:47:38;99715.00;;;22.40
44429;BMP180;30134;47.866;-4.222;2024-02-26T07:50:08;99730.00;;;22.40
44429;BMP180;30134;47.866;-4.222;2024-02-26T07:52:34;99731.00;;;22.40
44429;BMP180;30134;47.866;-4.222;2024-02-26T07:55:00;99742.00;;;22.40
44429;BMP180;30134;47.866;-4.222;2024-02-26T07:57:26;99758.00;;;22.40
44429;BMP180;30134;47.866;-4.222;2024-02-26T07:59:52;99761.00;;;22.40
44429;BMP180;30134;47.866;-4.222;2024-02-26T08:02:18;99771.00;;;22.40
44429;BMP180;30134;47.866;-4.222;2024-02-26T08:04:44;99784.00;;;22.40
44429;BMP180;30134;47.866;-4.222;2024-02-26T08:07:10;99777.00;;;22.30
44429;BMP180;30134;47.866;-4.222;2024-02-26T08:09:36;99783.00;;;22.40
44429;BMP180;30134;47.866;-4.222;2024-02-26T08:12:02;99799.00;;;22.40
44429;BMP180;30134;47.866;-4.222;2024-02-26T08:14:28;99792.00;;;22.40
44429;BMP180;30134;47.866;-4.222;2024-02-26T08:16:54;99802.00;;;22.40
44429;BMP180;30134;47.866;-4.222;2024-02-26T08:19:20;99807.00;;;22.30
44429;BMP180;30134;47.866;-4.222;2024-02-26T08:21:46;99825.00;;;22.40
44429;BMP180;30134;47.866;-4.222;2024-02-26T08:24:12;99835.00;;;22.40
44429;BMP180;30134;47.866;-4.222;2024-02-26T08:26:38;99833.00;;;22.30
44429;BMP180;30134;47.866;-4.222;2024-02-26T08:29:04;99846.00;;;22.30
44429;BMP180;30134;47.866;-4.222;2024-02-26T08:31:30;99842.00;;;22.40
44429;BMP180;30134;47.866;-4.222;2024-02-26T08:33:56;99853.00;;;22.40
44429;BMP180;30134;47.866;-4.222;2024-02-26T08:36:24;99859.00;;;22.30
44429;BMP180;30134;47.866;-4.222;2024-02-26T08:38:49;99871.00;;;22.40
44429;BMP180;30134;47.866;-4.222;2024-02-26T08:41:15;99877.00;;;22.40
44429;BMP180;30134;47.866;-4.222;2024-02-26T08:43:41;99888.00;;;22.30
44429;BMP180;30134;47.866;-4.222;2024-02-26T08:46:12;99883.00;;;22.30
44429;BMP180;30134;47.866;-4.222;2024-02-26T08:48:39;99880.00;;;22.40
44429;BMP180;30134;47.866;-4.222;2024-02-26T08:51:09;99898.00;;;22.30
44429;BMP180;30134;47.866;-4.222;2024-02-26T08:53:36;99917.00;;;22.20
44429;BMP180;30134;47.866;-4.222;2024-02-26T08:56:02;99905.00;;;22.10
44429;BMP180;30134;47.866;-4.222;2024-02-26T08:58:29;99920.00;;;22.10
44429;BMP180;30134;47.866;-4.222;2024-02-26T09:00:57;99927.00;;;22.10
44429;BMP180;30134;47.866;-4.222;2024-02-26T09:03:23;99926.00;;;22.00
44429;BMP180;30134;47.866;-4.222;2024-02-26T09:05:49;99945.00;;;22.20
44429;BMP180;30134;47.866;-4.222;2024-02-26T09:08:15;99946.00;;;22.20
44429;BMP180;30134;47.866;-4.222;2024-02-26T09:10:42;99945.00;;;22.10
44429;BMP180;30134;47.866;-4.222;2024-02-26T09:13:08;99951.00;;;22.00
44429;BMP180;30134;47.866;-4.222;2024-02-26T09:15:34;99951.00;;;22.00
44429;BMP180;30134;47.866;-4.222;2024-02-26T09:18:00;99971.00;;;22.10
44429;BMP180;30134;47.866;-4.222;2024-02-26T09:20:27;99966.00;;;22.10
44429;BMP180;30134;47.866;-4.222;2024-02-26T09:22:53;99988.00;;;22.10
44429;BMP180;30134;47.866;-4.222;2024-02-26T09:25:19;99985.00;;;22.10
44429;BMP180;30134;47.866;-4.222;2024-02-26T09:27:46;99989.00;;;22.20
44429;BMP180;30134;47.866;-4.222;2024-02-26T09:30:13;100014.00;;;22.20
44429;BMP180;30134;47.866;-4.222;2024-02-26T09:32:39;100007.00;;;22.20
44429;BMP180;30134;47.866;-4.222;2024-02-26T09:35:08;100018.00;;;22.10
44429;BMP180;30134;47.866;-4.222;2024-02-26T09:37:34;100027.00;;;22.10
44429;BMP180;30134;47.866;-4.222;2024-02-26T09:40:04;100034.00;;;22.10
44429;BMP180;30134;47.866;-4.222;2024-02-26T09:42:32;100039.00;;;22.10
44429;BMP180;30134;47.866;-4.222;2024-02-26T09:45:01;100037.00;;;22.20
44429;BMP180;30134;47.866;-4.222;2024-02-26T09:47:31;100052.00;;;22.10
44429;BMP180;30134;47.866;-4.222;2024-02-26T09:49:59;100055.00;;;22.10
44429;BMP180;30134;47.866;-4.222;2024-02-26T09:52:28;100061.00;;;22.20
44429;BMP180;30134;47.866;-4.222;2024-02-26T09:54:56;100064.00;;;21.90
44429;BMP180;30134;47.866;-4.222;2024-02-26T09:57:22;100065.00;;;21.80
44429;BMP180;30134;47.866;-4.222;2024-02-26T09:59:53;100074.00;;;21.90
44429;BMP180;30134;47.866;-4.222;2024-02-26T10:02:20;100081.00;;;21.90
44429;BMP180;30134;47.866;-4.222;2024-02-26T10:04:47;100091.00;;;22.00
44429;BMP180;30134;47.866;-4.222;2024-02-26T10:07:17;100093.00;;;22.00
44429;BMP180;30134;47.866;-4.222;2024-02-26T10:09:43;100100.00;;;22.00
44429;BMP180;30134;47.866;-4.222;2024-02-26T10:12:11;100112.00;;;22.00
44429;BMP180;30134;47.866;-4.222;2024-02-26T10:14:41;100115.00;;;22.10
44429;BMP180;30134;47.866;-4.222;2024-02-26T10:17:10;100114.00;;;22.00
44429;BMP180;30134;47.866;-4.222;2024-02-26T10:19:37;100124.00;;;22.00
44429;BMP180;30134;47.866;-4.222;2024-02-26T10:22:03;100132.00;;;22.00
44429;BMP180;30134;47.866;-4.222;2024-02-26T10:24:30;100136.00;;;22.10
44429;BMP180;30134;47.866;-4.222;2024-02-26T10:26:57;100142.00;;;22.10
44429;BMP180;30134;47.866;-4.222;2024-02-26T10:29:25;100152.00;;;22.10
44429;BMP180;30134;47.866;-4.222;2024-02-26T10:31:51;100157.00;;;22.00
44429;BMP180;30134;47.866;-4.222;2024-02-26T10:34:19;100166.00;;;22.00
44429;BMP180;30134;47.866;-4.222;2024-02-26T10:36:45;100173.00;;;22.00
44429;BMP180;30134;47.866;-4.222;2024-02-26T10:39:12;100182.00;;;22.10
44429;BMP180;30134;47.866;-4.222;2024-02-26T10:41:44;100191.00;;;22.10
44429;BMP180;30134;47.866;-4.222;2024-02-26T10:44:12;100209.00;;;22.10
44429;BMP180;30134;47.866;-4.222;2024-02-26T10:46:41;100211.00;;;22.10
44429;BMP180;30134;47.866;-4.222;2024-02-26T10:49:17;100233.00;;;22.00
44429;BMP180;30134;47.866;-4.222;2024-02-26T10:51:55;100229.00;;;22.00
44429;BMP180;30134;47.866;-4.222;2024-02-26T10:54:26;100244.00;;;22.10
44429;BMP180;30134;47.866;-4.222;2024-02-26T10:56:56;100242.00;;;22.10
44429;BMP180;30134;47.866;-4.222;2024-02-26T10:59:23;100252.00;;;22.10
44429;BMP180;30134;47.866;-4.222;2024-02-26T11:01:50;100247.00;;;22.10
44429;BMP180;30134;47.866;-4.222;2024-02-26T11:04:17;100273.00;;;22.10
44429;BMP180;30134;47.866;-4.222;2024-02-26T11:06:45;100257.00;;;22.10
44429;BMP180;30134;47.866;-4.222;2024-02-26T11:09:15;100271.00;;;22.10
44429;BMP180;30134;47.866;-4.222;2024-02-26T11:11:42;100282.00;;;22.00
44429;BMP180;30134;47.866;-4.222;2024-02-26T11:14:09;100285.00;;;22.00
44429;BMP180;30134;47.866;-4.222;2024-02-26T11:16:36;100290.00;;;21.90
44429;BMP180;30134;47.866;-4.222;2024-02-26T11:19:03;100298.00;;;21.90
44429;BMP180;30134;47.866;-4.222;2024-02-26T11:21:30;100308.00;;;22.00
44429;BMP180;30134;47.866;-4.222;2024-02-26T11:24:07;100314.00;;;22.00
44429;BMP180;30134;47.866;-4.222;2024-02-26T11:26:40;100319.00;;;22.00
44429;BMP180;30134;47.866;-4.222;2024-02-26T11:29:11;100331.00;;;22.10
44429;BMP180;30134;47.866;-4.222;2024-02-26T11:31:39;100338.00;;;22.00
44429;BMP180;30134;47.866;-4.222;2024-02-26T11:34:19;100359.00;;;22.10
44429;BMP180;30134;47.866;-4.222;2024-02-26T11:36:46;100364.00;;;22.00
44429;BMP180;30134;47.866;-4.222;2024-02-26T11:39:12;100364.00;;;22.00
44429;BMP180;30134;47.866;-4.222;2024-02-26T11:41:43;100367.00;;;22.00
44429;BMP180;30134;47.866;-4.222;2024-02-26T11:44:09;100382.00;;;22.00
44429;BMP180;30134;47.866;-4.222;2024-02-26T11:46:42;100370.00;;;22.00
44429;BMP180;30134;47.866;-4.222;2024-02-26T11:51:55;100395.00;;;22.10
44429;BMP180;30134;47.866;-4.222;2024-02-26T11:54:52;100395.00;;;22.00
44429;BMP180;30134;47.866;-4.222;2024-02-26T12:00:11;100396.00;;;22.00
44429;BMP180;30134;47.866;-4.222;2024-02-26T12:02:47;100410.00;;;22.00
44429;BMP180;30134;47.866;-4.222;2024-02-26T12:05:22;100419.00;;;22.00
44429;BMP180;30134;47.866;-4.222;2024-02-26T12:08:02;100423.00;;;22.00
44429;BMP180;30134;47.866;-4.222;2024-02-26T12:10:39;100425.00;;;22.10
44429;BMP180;30134;47.866;-4.222;2024-02-26T12:13:15;100432.00;;;22.00
44429;BMP180;30134;47.866;-4.222;2024-02-26T12:15:54;100433.00;;;22.10
44429;BMP180;30134;47.866;-4.222;2024-02-26T12:18:21;100427.00;;;22.10
44429;BMP180;30134;47.866;-4.222;2024-02-26T12:21:03;100440.00;;;22.00
44429;BMP180;30134;47.866;-4.222;2024-02-26T12:23:30;100435.00;;;22.10
44429;BMP180;30134;47.866;-4.222;2024-02-26T12:26:00;100442.00;;;22.00
44429;BMP180;30134;47.866;-4.222;2024-02-26T12:28:30;100463.00;;;22.00
44429;BMP180;30134;47.866;-4.222;2024-02-26T12:30:56;100473.00;;;22.10
44429;BMP180;30134;47.866;-4.222;2024-02-26T12:33:26;100467.00;;;22.00
44429;BMP180;30134;47.866;-4.222;2024-02-26T12:35:53;100476.00;;;22.00
44429;BMP180;30134;47.866;-4.222;2024-02-26T12:38:19;100460.00;;;22.10
44429;BMP180;30134;47.866;-4.222;2024-02-26T12:40:45;100487.00;;;22.00
44429;BMP180;30134;47.866;-4.222;2024-02-26T12:43:12;100480.00;;;22.00
44429;BMP180;30134;47.866;-4.222;2024-02-26T12:45:42;100482.00;;;22.00
44429;BMP180;30134;47.866;-4.222;2024-02-26T12:48:09;100482.00;;;22.00
44429;BMP180;30134;47.866;-4.222;2024-02-26T12:50:37;100504.00;;;22.00
44429;BMP180;30134;47.866;-4.222;2024-02-26T12:53:03;100500.00;;;22.00
44429;BMP180;30134;47.866;-4.222;2024-02-26T12:55:30;100497.00;;;22.00
44429;BMP180;30134;47.866;-4.222;2024-02-26T12:57:58;100510.00;;;22.00
44429;BMP180;30134;47.866;-4.222;2024-02-26T13:00:27;100506.00;;;22.10
44429;BMP180;30134;47.866;-4.222;2024-02-26T13:02:55;100516.00;;;22.00
44429;BMP180;30134;47.866;-4.222;2024-02-26T13:05:21;100521.00;;;22.00
44429;BMP180;30134;47.866;-4.222;2024-02-26T13:07:48;100540.00;;;22.00
44429;BMP180;30134;47.866;-4.222;2024-02-26T13:10:14;100530.00;;;22.00
44429;BMP180;30134;47.866;-4.222;2024-02-26T13:12:45;100541.00;;;22.00
44429;BMP180;30134;47.866;-4.222;2024-02-26T13:15:22;100530.00;;;22.00
44429;BMP180;30134;47.866;-4.222;2024-02-26T13:17:49;100542.00;;;22.00
44429;BMP180;30134;47.866;-4.222;2024-02-26T13:20:29;100543.00;;;22.00
44429;BMP180;30134;47.866;-4.222;2024-02-26T13:23:05;100551.00;;;22.00
44429;BMP180;30134;47.866;-4.222;2024-02-26T13:25:35;100574.00;;;22.00
44429;BMP180;30134;47.866;-4.222;2024-02-26T13:28:11;100556.00;;;22.00
44429;BMP180;30134;47.866;-4.222;2024-02-26T13:30:38;100559.00;;;22.00
44429;BMP180;30134;47.866;-4.222;2024-02-26T13:33:12;100551.00;;;22.00
44429;BMP180;30134;47.866;-4.222;2024-02-26T13:35:39;100557.00;;;22.00
44429;BMP180;30134;47.866;-4.222;2024-02-26T13:38:05;100568.00;;;22.00
44429;BMP180;30134;47.866;-4.222;2024-02-26T13:40:33;100579.00;;;22.00
44429;BMP180;30134;47.866;-4.222;2024-02-26T13:43:00;100565.00;;;22.00
44429;BMP180;30134;47.866;-4.222;2024-02-26T13:45:26;100577.00;;;22.00
44429;BMP180;30134;47.866;-4.222;2024-02-26T13:47:53;100588.00;;;22.00
44429;BMP180;30134;47.866;-4.222;2024-02-26T13:50:19;100595.00;;;22.00
44429;BMP180;30134;47.866;-4.222;2024-02-26T13:52:49;100612.00;;;22.00
44429;BMP180;30134;47.866;-4.222;2024-02-26T13:55:19;100613.00;;;22.00
44429;BMP180;30134;47.866;-4.222;2024-02-26T13:57:46;100619.00;;;22.10